createdAt,value
2023-01-29T00:01:17.808Z,57.79
2023-01-29T00:03:44.058Z,58.57
2023-01-29T00:06:10.341Z,58.23
2023-01-29T00:08:36.599Z,58.51
2023-01-29T00:11:02.892Z,57.84
2023-01-29T00:13:29.169Z,57.99
2023-01-29T00:15:55.416Z,58.69
2023-01-29T00:18:21.686Z,58.12
2023-01-29T00:20:47.959Z,58.10
2023-01-29T00:23:14.223Z,58.30
2023-01-29T00:25:40.584Z,57.50
2023-01-29T00:28:06.830Z,57.65
2023-01-29T00:30:33.098Z,58.13
2023-01-29T00:32:59.358Z,57.36
2023-01-29T00:35:25.610Z,58.02
2023-01-29T00:37:51.871Z,58.18
2023-01-29T00:40:18.430Z,57.66
2023-01-29T00:42:44.824Z,57.47
2023-01-29T00:45:11.089Z,57.77
2023-01-29T00:47:37.348Z,58.44
2023-01-29T00:50:03.633Z,58.09
2023-01-29T00:52:29.922Z,58.51
2023-01-29T00:54:56.223Z,58.25
2023-01-29T00:57:22.500Z,58.50
2023-01-29T00:59:48.794Z,58.37
2023-01-29T01:02:15.308Z,58.14
2023-01-29T01:04:41.668Z,57.98
2023-01-29T01:07:08.004Z,57.92
2023-01-29T01:09:34.249Z,58.26
2023-01-29T01:12:00.495Z,58.46
2023-01-29T01:14:26.741Z,58.66
2023-01-29T01:16:52.981Z,58.68
2023-01-29T01:19:19.260Z,58.52
2023-01-29T01:21:45.529Z,58.16
2023-01-29T01:24:11.836Z,58.60
2023-01-29T01:26:38.105Z,58.87
2023-01-29T01:29:04.355Z,59.07
2023-01-29T01:31:30.649Z,59.05
2023-01-29T01:33:56.924Z,59.10
2023-01-29T01:36:23.173Z,58.17
2023-01-29T01:38:49.431Z,58.03
2023-01-29T01:41:15.692Z,58.08
2023-01-29T01:43:41.971Z,58.60
2023-01-29T01:46:08.264Z,58.11
2023-01-29T01:48:34.527Z,59.18
2023-01-29T01:51:00.814Z,58.69
2023-01-29T01:53:27.075Z,57.76
2023-01-29T01:55:53.367Z,57.89
2023-01-29T01:58:19.617Z,58.27
2023-01-29T02:00:45.896Z,58.56
2023-01-29T02:03:12.160Z,58.03
2023-01-29T02:05:38.421Z,58.16
2023-01-29T02:08:04.695Z,58.49
2023-01-29T02:10:30.945Z,58.33
2023-01-29T02:12:57.220Z,58.08
2023-01-29T02:15:23.483Z,59.00
2023-01-29T02:17:49.777Z,58.90
2023-01-29T02:20:16.342Z,58.74
2023-01-29T02:22:42.725Z,57.92
2023-01-29T02:25:09.010Z,58.74
2023-01-29T02:27:35.268Z,57.95
2023-01-29T02:30:01.604Z,58.32
2023-01-29T02:32:27.907Z,58.23
2023-01-29T02:34:54.160Z,57.81
2023-01-29T02:37:20.424Z,57.20
2023-01-29T02:39:46.687Z,56.90
2023-01-29T02:42:12.941Z,57.25
2023-01-29T02:44:39.207Z,57.11
2023-01-29T02:47:05.472Z,57.70
2023-01-29T02:49:31.724Z,57.25
2023-01-29T02:51:57.980Z,56.87
2023-01-29T02:54:24.224Z,56.59
2023-01-29T02:56:50.473Z,56.62
2023-01-29T02:59:16.719Z,56.81
2023-01-29T03:01:42.981Z,56.16
2023-01-29T03:04:09.232Z,56.28
2023-01-29T03:06:35.496Z,56.81
2023-01-29T03:09:01.864Z,56.95
2023-01-29T03:11:28.135Z,56.48
2023-01-29T03:13:54.384Z,56.30
2023-01-29T03:16:20.663Z,56.72
2023-01-29T03:18:46.941Z,55.79
2023-01-29T03:21:13.229Z,56.23
2023-01-29T03:23:39.496Z,55.94
2023-01-29T03:26:05.754Z,55.80
2023-01-29T03:28:32.001Z,56.38
2023-01-29T03:30:58.292Z,56.32
2023-01-29T03:33:24.563Z,56.00
2023-01-29T03:35:50.829Z,56.19
2023-01-29T03:38:17.177Z,56.68
2023-01-29T03:40:43.463Z,55.88
2023-01-29T03:43:09.704Z,56.73
2023-01-29T03:45:35.985Z,56.41
2023-01-29T03:48:02.285Z,56.61
2023-01-29T03:50:28.566Z,56.78
2023-01-29T03:52:54.849Z,56.19
2023-01-29T03:55:21.097Z,57.02
2023-01-29T03:57:47.369Z,56.75
2023-01-29T04:00:13.700Z,56.60
2023-01-29T04:02:40.018Z,57.05
2023-01-29T04:05:06.268Z,56.47
2023-01-29T04:07:32.513Z,57.24
2023-01-29T04:09:58.788Z,57.40
2023-01-29T04:12:25.059Z,56.80
2023-01-29T04:14:51.308Z,56.87
2023-01-29T04:17:17.576Z,57.29
2023-01-29T04:19:43.834Z,56.75
2023-01-29T04:22:10.101Z,56.62
2023-01-29T04:24:36.364Z,56.46
2023-01-29T04:27:02.627Z,56.85
2023-01-29T04:29:30.177Z,56.45
2023-01-29T04:31:56.615Z,56.61
2023-01-29T04:34:22.902Z,57.16
2023-01-29T04:36:49.152Z,57.46
2023-01-29T04:39:15.411Z,56.75
2023-01-29T04:41:41.663Z,56.75
2023-01-29T04:44:07.929Z,57.18
2023-01-29T04:46:34.212Z,56.37
2023-01-29T04:49:00.464Z,57.11
2023-01-29T04:51:26.712Z,57.04
2023-01-29T04:53:52.984Z,57.25
2023-01-29T04:56:19.256Z,56.98
2023-01-29T04:58:45.512Z,56.81
2023-01-29T05:01:11.766Z,57.03
2023-01-29T05:03:38.013Z,56.45
2023-01-29T05:06:04.263Z,56.76
2023-01-29T05:08:30.528Z,56.90
2023-01-29T05:10:56.799Z,56.97
2023-01-29T05:13:23.071Z,57.48
2023-01-29T05:15:49.370Z,57.46
2023-01-29T05:18:15.645Z,57.09
2023-01-29T05:20:41.906Z,57.33
2023-01-29T05:23:08.159Z,57.58
2023-01-29T05:25:34.537Z,57.68
2023-01-29T05:28:00.809Z,56.99
2023-01-29T05:30:27.105Z,57.77
2023-01-29T05:32:53.374Z,57.13
2023-01-29T05:35:19.635Z,57.52
2023-01-29T05:37:45.926Z,56.99
2023-01-29T05:40:12.181Z,57.60
2023-01-29T05:42:38.447Z,57.48
2023-01-29T05:45:04.749Z,57.64
2023-01-29T05:47:31.012Z,58.13
2023-01-29T05:49:57.272Z,57.86
2023-01-29T05:52:23.636Z,56.94
2023-01-29T05:54:49.899Z,57.62
2023-01-29T05:57:16.165Z,57.81
2023-01-29T05:59:42.416Z,57.87
2023-01-29T06:02:08.734Z,57.81
2023-01-29T06:04:34.997Z,57.02
2023-01-29T06:07:01.253Z,57.18
2023-01-29T06:09:27.515Z,57.63
2023-01-29T06:11:53.871Z,57.41
2023-01-29T06:14:20.143Z,56.78
2023-01-29T06:16:46.392Z,57.66
2023-01-29T06:19:12.636Z,57.52
2023-01-29T06:21:38.888Z,57.04
2023-01-29T06:24:05.186Z,57.03
2023-01-29T06:26:31.476Z,57.58
2023-01-29T06:28:57.728Z,57.24
2023-01-29T06:31:39.935Z,57.45
2023-01-29T06:34:06.371Z,57.66
2023-01-29T06:36:32.636Z,57.46
2023-01-29T06:38:58.970Z,57.64
2023-01-29T06:41:25.263Z,57.46
2023-01-29T06:43:51.588Z,57.28
2023-01-29T06:46:17.851Z,57.29
2023-01-29T06:48:44.169Z,57.92
2023-01-29T06:51:10.434Z,57.82
2023-01-29T06:53:36.697Z,57.57
2023-01-29T06:56:02.963Z,57.74
2023-01-29T06:58:29.228Z,57.91
2023-01-29T07:00:55.508Z,57.76
2023-01-29T07:03:21.789Z,57.48
2023-01-29T07:05:48.041Z,57.87
2023-01-29T07:08:14.292Z,57.74
2023-01-29T07:10:40.536Z,58.32
2023-01-29T07:13:06.823Z,57.69
2023-01-29T07:15:33.100Z,57.57
2023-01-29T07:17:59.365Z,57.45
2023-01-29T07:20:25.641Z,57.26
2023-01-29T07:22:51.894Z,57.54
2023-01-29T07:25:18.178Z,57.60
2023-01-29T07:27:44.463Z,58.15
2023-01-29T07:30:10.708Z,57.51
2023-01-29T07:32:36.974Z,57.45
2023-01-29T07:35:03.218Z,57.89
2023-01-29T07:37:29.493Z,58.37
2023-01-29T07:39:55.750Z,57.42
2023-01-29T07:42:21.997Z,57.57
2023-01-29T07:44:48.251Z,57.69
2023-01-29T07:47:16.361Z,57.40
2023-01-29T07:49:43.449Z,57.54
2023-01-29T07:52:09.708Z,57.52
2023-01-29T07:54:35.961Z,57.87
2023-01-29T07:57:02.224Z,57.39
2023-01-29T07:59:28.495Z,57.97
2023-01-29T08:01:54.794Z,57.98
2023-01-29T08:04:21.098Z,57.48
2023-01-29T08:06:47.348Z,57.46
2023-01-29T08:09:13.607Z,57.80
2023-01-29T08:11:39.870Z,57.66
2023-01-29T08:14:06.140Z,57.61
2023-01-29T08:16:32.445Z,58.53
2023-01-29T08:18:58.713Z,57.63
2023-01-29T08:21:24.966Z,58.17
2023-01-29T08:23:51.318Z,57.67
2023-01-29T08:26:17.569Z,57.30
2023-01-29T08:28:43.811Z,57.77
2023-01-29T08:31:10.101Z,57.51
2023-01-29T08:33:39.321Z,57.35
2023-01-29T08:36:05.813Z,57.54
2023-01-29T08:38:32.067Z,57.35
2023-01-29T08:40:58.327Z,57.39
2023-01-29T08:43:24.607Z,57.65
2023-01-29T08:45:50.931Z,57.71
2023-01-29T08:48:17.208Z,57.46
2023-01-29T08:50:43.452Z,57.08
2023-01-29T08:53:09.722Z,57.49
2023-01-29T08:55:35.997Z,57.64
2023-01-29T08:58:02.245Z,57.66
2023-01-29T09:00:28.516Z,57.45
2023-01-29T09:02:54.785Z,57.83
2023-01-29T09:05:21.059Z,57.65
2023-01-29T09:07:47.323Z,56.93
2023-01-29T09:10:13.586Z,57.43
2023-01-29T09:12:39.845Z,57.28
2023-01-29T09:15:06.095Z,56.28
2023-01-29T09:17:32.357Z,56.68
2023-01-29T09:19:58.631Z,56.37
2023-01-29T09:22:24.908Z,56.50
2023-01-29T09:24:51.198Z,56.31
2023-01-29T09:27:17.478Z,56.22
2023-01-29T09:29:43.766Z,56.36
2023-01-29T09:32:10.036Z,55.96
2023-01-29T09:34:36.301Z,55.90
2023-01-29T09:37:02.564Z,56.21
2023-01-29T09:39:28.812Z,56.10
2023-01-29T09:41:55.082Z,55.63
2023-01-29T09:44:21.337Z,55.52
2023-01-29T09:46:47.597Z,55.73
2023-01-29T09:49:13.841Z,55.39
2023-01-29T09:51:40.085Z,55.42
2023-01-29T09:54:06.367Z,56.22
2023-01-29T09:56:32.650Z,55.94
2023-01-29T09:59:00.661Z,55.85
2023-01-29T10:01:28.046Z,55.28
2023-01-29T10:03:54.452Z,56.40
2023-01-29T10:06:20.717Z,56.17
2023-01-29T10:08:46.972Z,55.91
2023-01-29T10:11:13.228Z,55.06
2023-01-29T10:13:39.473Z,54.63
2023-01-29T10:16:05.742Z,54.58
2023-01-29T10:18:32.000Z,54.33
2023-01-29T10:20:58.252Z,54.58
2023-01-29T10:23:24.529Z,54.84
2023-01-29T10:25:50.783Z,55.09
2023-01-29T10:28:17.023Z,54.15
2023-01-29T10:30:43.377Z,53.14
2023-01-29T10:33:09.675Z,53.10
2023-01-29T10:35:35.927Z,54.14
2023-01-29T10:38:02.185Z,54.06
2023-01-29T10:40:28.449Z,53.88
2023-01-29T10:42:54.725Z,53.35
2023-01-29T10:45:20.989Z,54.01
2023-01-29T10:47:47.309Z,54.23
2023-01-29T10:50:13.717Z,54.02
2023-01-29T10:52:39.988Z,53.88
2023-01-29T10:55:06.279Z,54.05
2023-01-29T10:57:32.562Z,53.75
2023-01-29T10:59:58.829Z,53.53
2023-01-29T11:02:25.131Z,54.57
2023-01-29T11:04:51.406Z,53.92
2023-01-29T11:07:17.699Z,52.55
2023-01-29T11:09:44.008Z,52.98
2023-01-29T11:12:10.281Z,54.09
2023-01-29T11:14:36.547Z,53.19
2023-01-29T11:17:02.908Z,53.19
2023-01-29T11:19:29.165Z,53.61
2023-01-29T11:21:55.428Z,53.31
2023-01-29T11:24:21.708Z,53.20
2023-01-29T11:26:47.973Z,52.68
2023-01-29T11:29:14.229Z,52.12
2023-01-29T11:31:40.509Z,52.41
2023-01-29T11:34:06.780Z,53.27
2023-01-29T11:36:33.037Z,52.59
2023-01-29T11:38:59.312Z,52.01
2023-01-29T11:41:25.581Z,52.67
2023-01-29T11:43:51.853Z,52.35
2023-01-29T11:46:18.148Z,53.32
2023-01-29T11:48:44.437Z,52.98
2023-01-29T11:51:10.692Z,51.86
2023-01-29T11:53:36.991Z,52.30
2023-01-29T11:56:03.255Z,53.16
2023-01-29T11:58:29.531Z,52.23
2023-01-29T12:00:55.800Z,53.16
2023-01-29T12:03:24.799Z,52.42
2023-01-29T12:05:51.349Z,52.81
2023-01-29T12:08:17.634Z,52.88
2023-01-29T12:10:43.885Z,52.70
2023-01-29T12:13:10.133Z,52.59
2023-01-29T12:15:36.402Z,52.25
2023-01-29T12:18:02.673Z,52.06
2023-01-29T12:20:28.920Z,51.60
2023-01-29T12:22:55.179Z,51.71
2023-01-29T12:25:21.449Z,52.20
2023-01-29T12:27:47.696Z,52.04
2023-01-29T12:30:14.107Z,51.92
2023-01-29T12:32:40.418Z,52.08
2023-01-29T12:35:06.677Z,51.30
2023-01-29T12:37:32.939Z,51.17
2023-01-29T12:39:59.181Z,51.10
2023-01-29T12:42:25.447Z,50.93
2023-01-29T12:44:51.728Z,51.69
2023-01-29T12:47:18.060Z,51.93
2023-01-29T12:49:44.312Z,50.98
2023-01-29T12:52:10.576Z,51.97
2023-01-29T12:54:36.839Z,51.88
2023-01-29T12:57:03.088Z,51.64
2023-01-29T12:59:29.511Z,51.57
2023-01-29T13:01:55.776Z,51.06
2023-01-29T13:04:22.020Z,50.70
2023-01-29T13:06:48.299Z,51.19
2023-01-29T13:09:14.575Z,50.75
2023-01-29T13:11:40.847Z,51.38
2023-01-29T13:14:07.125Z,50.65
2023-01-29T13:16:33.431Z,50.67
2023-01-29T13:18:59.705Z,50.36
2023-01-29T13:21:25.967Z,50.86
2023-01-29T13:23:52.218Z,52.05
2023-01-29T13:26:18.538Z,51.05
2023-01-29T13:28:44.817Z,51.12
2023-01-29T13:31:11.106Z,51.46
2023-01-29T13:33:37.388Z,51.80
2023-01-29T13:36:03.648Z,52.05
2023-01-29T13:38:29.916Z,51.64
2023-01-29T13:40:56.170Z,51.17
2023-01-29T13:43:22.468Z,54.05
2023-01-29T13:45:48.794Z,52.81
2023-01-29T13:48:15.087Z,51.26
2023-01-29T13:50:41.460Z,50.73
2023-01-29T13:53:07.713Z,50.01
2023-01-29T13:55:33.963Z,49.93
2023-01-29T13:58:00.222Z,51.14
2023-01-29T14:00:26.471Z,51.17
2023-01-29T14:02:52.722Z,50.65
2023-01-29T14:05:19.105Z,50.72
2023-01-29T14:07:45.406Z,51.30
2023-01-29T14:10:13.951Z,50.92
2023-01-29T14:12:40.415Z,51.77
2023-01-29T14:15:06.667Z,51.33
2023-01-29T14:17:32.929Z,51.53
2023-01-29T14:19:59.179Z,52.40
2023-01-29T14:22:25.454Z,51.31
2023-01-29T14:24:51.717Z,51.53
2023-01-29T14:27:17.969Z,51.99
2023-01-29T14:29:44.387Z,51.25
2023-01-29T14:32:10.654Z,51.15
2023-01-29T14:34:37.973Z,51.02
2023-01-29T14:37:04.291Z,51.00
2023-01-29T14:39:30.661Z,51.37
2023-01-29T14:41:56.909Z,51.35
2023-01-29T14:44:23.160Z,50.71
2023-01-29T14:46:49.427Z,50.70
2023-01-29T14:49:15.688Z,51.40
2023-01-29T14:51:41.958Z,52.51
2023-01-29T14:54:08.211Z,51.98
2023-01-29T14:56:34.468Z,51.70
2023-01-29T14:59:00.748Z,51.42
2023-01-29T15:01:27.114Z,51.35
2023-01-29T15:03:53.418Z,51.94
2023-01-29T15:06:19.700Z,51.44
2023-01-29T15:08:45.947Z,52.92
2023-01-29T15:11:12.210Z,52.54
2023-01-29T15:13:38.482Z,52.31
2023-01-29T15:16:04.783Z,52.31
2023-01-29T15:18:31.098Z,52.33
2023-01-29T15:20:57.356Z,52.97
2023-01-29T15:23:23.624Z,52.03
2023-01-29T15:25:49.890Z,52.00
2023-01-29T15:28:16.140Z,53.17
2023-01-29T15:30:42.463Z,52.51
2023-01-29T15:33:08.753Z,52.71
2023-01-29T15:35:35.030Z,52.79
2023-01-29T15:38:01.291Z,52.83
2023-01-29T15:40:27.540Z,52.22
2023-01-29T15:42:53.796Z,52.79
2023-01-29T15:45:20.065Z,53.11
2023-01-29T15:47:46.402Z,52.19
2023-01-29T15:50:12.710Z,52.68
2023-01-29T15:52:38.978Z,52.41
2023-01-29T15:55:05.239Z,52.60
2023-01-29T15:57:31.501Z,52.49
2023-01-29T15:59:57.764Z,52.92
2023-01-29T16:02:24.040Z,53.13
2023-01-29T16:04:50.318Z,53.72
2023-01-29T16:07:16.593Z,53.46
2023-01-29T16:09:42.865Z,53.55
2023-01-29T16:12:09.112Z,52.85
2023-01-29T16:14:35.360Z,53.38
2023-01-29T16:17:01.660Z,52.80
2023-01-29T16:19:27.935Z,52.54
2023-01-29T16:21:54.228Z,52.51
2023-01-29T16:24:20.504Z,53.15
2023-01-29T16:26:46.817Z,52.95
2023-01-29T16:29:13.097Z,52.75
2023-01-29T16:31:39.517Z,53.75
2023-01-29T16:34:05.853Z,53.45
2023-01-29T16:36:32.113Z,53.91
2023-01-29T16:38:58.364Z,54.06
2023-01-29T16:41:24.629Z,54.17
2023-01-29T16:43:50.911Z,54.26
2023-01-29T16:46:17.199Z,56.31
2023-01-29T16:48:43.479Z,53.87
2023-01-29T16:51:09.744Z,61.86
2023-01-29T16:53:36.019Z,54.49
2023-01-29T16:56:02.293Z,55.04
2023-01-29T16:58:28.605Z,54.60
2023-01-29T17:00:54.964Z,54.19
2023-01-29T17:03:21.253Z,55.04
2023-01-29T17:05:47.544Z,54.89
2023-01-29T17:08:13.821Z,54.93
2023-01-29T17:10:40.075Z,55.60
2023-01-29T17:13:06.375Z,55.48
2023-01-29T17:15:32.634Z,55.48
2023-01-29T17:17:58.896Z,55.78
2023-01-29T17:20:26.881Z,55.14
2023-01-29T17:22:53.253Z,55.82
2023-01-29T17:25:19.933Z,55.72
2023-01-29T17:27:46.332Z,56.21
2023-01-29T17:30:12.587Z,55.52
2023-01-29T17:32:43.602Z,56.79
2023-01-29T17:35:11.533Z,56.72
2023-01-29T17:37:37.811Z,56.42
2023-01-29T17:40:05.384Z,55.58
2023-01-29T17:42:31.754Z,55.97
2023-01-29T17:44:58.004Z,55.92
2023-01-29T17:47:24.281Z,56.67
2023-01-29T17:49:50.552Z,54.92
2023-01-29T17:52:16.819Z,55.12
2023-01-29T17:54:43.169Z,55.14
2023-01-29T17:57:09.466Z,55.07
2023-01-29T17:59:35.731Z,57.26
2023-01-29T18:02:02.083Z,55.91
2023-01-29T18:04:28.382Z,56.50
2023-01-29T18:06:54.640Z,56.75
2023-01-29T18:09:20.891Z,56.67
2023-01-29T18:11:47.165Z,56.82
2023-01-29T18:14:14.090Z,56.87
2023-01-29T18:16:40.885Z,56.40
2023-01-29T18:19:07.413Z,56.40
2023-01-29T18:21:33.676Z,56.14
2023-01-29T18:23:59.947Z,56.65
2023-01-29T18:26:26.263Z,55.89
2023-01-29T18:28:52.552Z,56.33
2023-01-29T18:31:18.870Z,56.51
2023-01-29T18:33:45.173Z,55.70
2023-01-29T18:36:11.417Z,56.35
2023-01-29T18:38:37.687Z,56.23
2023-01-29T18:41:03.984Z,56.10
2023-01-29T18:43:30.242Z,56.06
2023-01-29T18:45:56.528Z,56.02
2023-01-29T18:48:22.856Z,56.51
2023-01-29T18:50:49.135Z,56.26
2023-01-29T18:53:15.414Z,55.74
2023-01-29T18:55:41.702Z,56.64
2023-01-29T18:58:32.716Z,56.45
2023-01-29T19:00:54.179Z,56.58
2023-01-29T19:03:20.798Z,57.05
2023-01-29T19:05:47.066Z,56.64
2023-01-29T19:08:13.344Z,56.71
2023-01-29T19:10:39.605Z,56.13
2023-01-29T19:13:06.686Z,55.47
2023-01-29T19:15:33.040Z,55.58
2023-01-29T19:17:59.299Z,56.24
2023-01-29T19:20:25.568Z,56.26
2023-01-29T19:22:51.836Z,56.29
2023-01-29T19:25:18.390Z,56.07
2023-01-29T19:27:44.791Z,56.10
2023-01-29T19:30:11.055Z,56.24
2023-01-29T19:32:37.341Z,56.92
2023-01-29T19:35:03.606Z,56.25
2023-01-29T19:37:29.865Z,55.74
2023-01-29T19:39:56.137Z,55.94
2023-01-29T19:42:22.400Z,55.38
2023-01-29T19:44:48.648Z,55.82
2023-01-29T19:47:14.939Z,55.12
2023-01-29T19:49:41.255Z,55.72
2023-01-29T19:52:07.504Z,56.22
2023-01-29T19:54:33.773Z,56.64
2023-01-29T19:57:00.020Z,56.70
2023-01-29T19:59:26.279Z,56.72
2023-01-29T20:01:52.616Z,56.89
2023-01-29T20:04:18.904Z,57.63
2023-01-29T20:06:45.180Z,57.45
2023-01-29T20:09:11.446Z,56.94
2023-01-29T20:11:37.717Z,56.93
2023-01-29T20:14:04.033Z,57.42
2023-01-29T20:16:30.348Z,57.31
2023-01-29T20:19:14.246Z,57.50
2023-01-29T20:21:41.322Z,57.66
2023-01-29T20:24:08.016Z,57.63
2023-01-29T20:26:34.326Z,58.19
2023-01-29T20:29:00.620Z,57.46
2023-01-29T20:31:26.930Z,57.26
2023-01-29T20:33:53.306Z,57.52
2023-01-29T20:36:19.593Z,57.66
2023-01-29T20:38:45.841Z,57.51
2023-01-29T20:41:12.137Z,58.18
2023-01-29T20:43:38.407Z,58.45
2023-01-29T20:46:04.772Z,58.13
2023-01-29T20:48:31.097Z,57.57
2023-01-29T20:50:57.349Z,57.58
2023-01-29T20:53:23.643Z,57.48
2023-01-29T20:55:50.080Z,57.58
2023-01-29T20:58:16.555Z,57.77
2023-01-29T21:00:42.844Z,57.13
2023-01-29T21:03:09.156Z,57.78
2023-01-29T21:05:35.449Z,57.65
2023-01-29T21:08:01.711Z,58.10
2023-01-29T21:10:27.980Z,57.67
2023-01-29T21:12:54.285Z,58.05
2023-01-29T21:15:20.559Z,57.86
2023-01-29T21:17:46.820Z,58.14
2023-01-29T21:20:13.081Z,58.11
2023-01-29T21:22:39.360Z,58.19
2023-01-29T21:25:05.625Z,57.69
2023-01-29T21:27:31.906Z,58.25
2023-01-29T21:29:58.176Z,58.07
2023-01-29T21:32:24.446Z,58.45
2023-01-29T21:34:52.550Z,58.27
2023-01-29T21:37:18.992Z,58.39
2023-01-29T21:39:45.254Z,59.04
2023-01-29T21:42:11.500Z,58.09
2023-01-29T21:44:37.761Z,57.98
2023-01-29T21:47:04.010Z,57.69
2023-01-29T21:49:30.265Z,57.60
2023-01-29T21:51:56.585Z,57.71
2023-01-29T21:54:22.852Z,58.62
2023-01-29T21:56:49.105Z,57.85
2023-01-29T21:59:15.373Z,58.25
2023-01-29T22:01:41.725Z,58.67
2023-01-29T22:04:08.030Z,58.55
2023-01-29T22:06:34.298Z,58.50
2023-01-29T22:09:00.585Z,58.63
2023-01-29T22:11:27.110Z,58.38
2023-01-29T22:13:53.371Z,58.93
2023-01-29T22:16:19.779Z,59.02
2023-01-29T22:18:46.039Z,58.75
2023-01-29T22:21:12.305Z,59.15
2023-01-29T22:23:38.580Z,59.33
2023-01-29T22:26:04.843Z,59.29
2023-01-29T22:28:31.102Z,59.25
2023-01-29T22:30:57.417Z,59.39
2023-01-29T22:33:23.665Z,58.88
2023-01-29T22:35:49.948Z,59.26
2023-01-29T22:38:16.274Z,59.62
2023-01-29T22:40:42.540Z,59.21
2023-01-29T22:43:08.808Z,58.85
2023-01-29T22:45:35.084Z,59.33
2023-01-29T22:48:01.359Z,59.46
2023-01-29T22:50:27.605Z,59.02
2023-01-29T22:52:54.180Z,59.42
2023-01-29T22:55:20.556Z,59.27
2023-01-29T22:57:46.805Z,59.47
2023-01-29T23:00:13.083Z,59.79
2023-01-29T23:02:39.379Z,59.42
2023-01-29T23:05:05.642Z,59.77
2023-01-29T23:07:31.885Z,59.48
2023-01-29T23:09:58.163Z,59.41
2023-01-29T23:12:24.426Z,59.38
2023-01-29T23:14:50.666Z,59.40
2023-01-29T23:17:17.021Z,58.75
2023-01-29T23:19:43.287Z,59.54
2023-01-29T23:22:09.536Z,59.48
2023-01-29T23:24:35.800Z,59.01
2023-01-29T23:27:02.045Z,58.80
2023-01-29T23:29:28.312Z,59.08
2023-01-29T23:31:54.593Z,59.25
2023-01-29T23:34:20.864Z,59.73
2023-01-29T23:36:47.130Z,59.32
2023-01-29T23:39:13.412Z,58.96
2023-01-29T23:41:39.674Z,59.55
2023-01-29T23:44:05.952Z,59.26
2023-01-29T23:46:32.267Z,59.88
2023-01-29T23:48:58.612Z,59.65
2023-01-29T23:51:24.882Z,59.39
2023-01-29T23:53:51.156Z,59.35
2023-01-29T23:56:17.521Z,59.58
2023-01-29T23:58:43.769Z,59.87
